sensor_id;sensor_type;location;lat;lon;timestamp;P1;durP1;ratioP1;P2;durP2;ratioP2
29416;SDS011;28421;51.030;4.006;2022-07-06T00:01:23;1.45;;;1.35;;
29416;SDS011;28421;51.030;4.006;2022-07-06T00:03:49;1.90;;;1.73;;
29416;SDS011;28421;51.030;4.006;2022-07-06T00:06:15;1.63;;;1.42;;
29416;SDS011;28421;51.030;4.006;2022-07-06T00:08:42;1.58;;;1.27;;
29416;SDS011;28421;51.030;4.006;2022-07-06T00:11:08;2.63;;;1.55;;
29416;SDS011;28421;51.030;4.006;2022-07-06T00:13:34;3.42;;;1.10;;
29416;SDS011;28421;51.030;4.006;2022-07-06T00:16:00;1.27;;;1.17;;
29416;SDS011;28421;51.030;4.006;2022-07-06T00:18:25;1.02;;;1.00;;
29416;SDS011;28421;51.030;4.006;2022-07-06T00:20:51;1.48;;;1.20;;
29416;SDS011;28421;51.030;4.006;2022-07-06T00:23:17;1.10;;;1.10;;
29416;SDS011;28421;51.030;4.006;2022-07-06T00:25:43;1.08;;;0.95;;
29416;SDS011;28421;51.030;4.006;2022-07-06T00:28:09;2.58;;;2.35;;
29416;SDS011;28421;51.030;4.006;2022-07-06T00:30:34;1.92;;;1.83;;
29416;SDS011;28421;51.030;4.006;2022-07-06T00:33:00;2.40;;;1.73;;
29416;SDS011;28421;51.030;4.006;2022-07-06T00:35:26;1.60;;;1.50;;
29416;SDS011;28421;51.030;4.006;2022-07-06T00:37:53;2.85;;;1.52;;
29416;SDS011;28421;51.030;4.006;2022-07-06T00:40:19;1.05;;;1.05;;
29416;SDS011;28421;51.030;4.006;2022-07-06T00:42:45;1.00;;;1.00;;
29416;SDS011;28421;51.030;4.006;2022-07-06T00:45:13;4.93;;;2.30;;
29416;SDS011;28421;51.030;4.006;2022-07-06T00:47:40;1.88;;;1.70;;
29416;SDS011;28421;51.030;4.006;2022-07-06T00:50:07;2.10;;;1.70;;
29416;SDS011;28421;51.030;4.006;2022-07-06T00:52:41;1.67;;;1.58;;
29416;SDS011;28421;51.030;4.006;2022-07-06T00:55:08;1.88;;;1.48;;
29416;SDS011;28421;51.030;4.006;2022-07-06T00:57:35;1.10;;;0.95;;
29416;SDS011;28421;51.030;4.006;2022-07-06T01:00:02;2.17;;;1.48;;
29416;SDS011;28421;51.030;4.006;2022-07-06T01:02:32;1.38;;;1.27;;
29416;SDS011;28421;51.030;4.006;2022-07-06T01:04:59;1.50;;;1.35;;
29416;SDS011;28421;51.030;4.006;2022-07-06T01:07:26;2.58;;;1.70;;
29416;SDS011;28421;51.030;4.006;2022-07-06T01:09:53;3.13;;;1.85;;
29416;SDS011;28421;51.030;4.006;2022-07-06T01:12:19;4.03;;;1.48;;
29416;SDS011;28421;51.030;4.006;2022-07-06T01:14:45;2.53;;;1.45;;
29416;SDS011;28421;51.030;4.006;2022-07-06T01:17:12;1.70;;;1.33;;
29416;SDS011;28421;51.030;4.006;2022-07-06T01:19:40;1.63;;;1.52;;
29416;SDS011;28421;51.030;4.006;2022-07-06T01:22:06;1.63;;;1.52;;
29416;SDS011;28421;51.030;4.006;2022-07-06T01:24:34;1.30;;;1.20;;
29416;SDS011;28421;51.030;4.006;2022-07-06T01:27:01;1.75;;;1.65;;
29416;SDS011;28421;51.030;4.006;2022-07-06T01:29:27;1.38;;;1.25;;
29416;SDS011;28421;51.030;4.006;2022-07-06T01:31:52;1.58;;;1.48;;
29416;SDS011;28421;51.030;4.006;2022-07-06T01:34:19;2.30;;;1.42;;
29416;SDS011;28421;51.030;4.006;2022-07-06T01:36:45;1.58;;;1.48;;
29416;SDS011;28421;51.030;4.006;2022-07-06T01:39:11;1.50;;;1.27;;
29416;SDS011;28421;51.030;4.006;2022-07-06T01:41:37;1.35;;;1.25;;
29416;SDS011;28421;51.030;4.006;2022-07-06T01:44:03;2.08;;;1.92;;
29416;SDS011;28421;51.030;4.006;2022-07-06T01:46:29;2.33;;;1.73;;
29416;SDS011;28421;51.030;4.006;2022-07-06T01:48:56;2.72;;;1.05;;
29416;SDS011;28421;51.030;4.006;2022-07-06T01:51:23;1.58;;;1.42;;
29416;SDS011;28421;51.030;4.006;2022-07-06T01:53:49;1.40;;;1.30;;
29416;SDS011;28421;51.030;4.006;2022-07-06T01:56:19;0.98;;;0.98;;
29416;SDS011;28421;51.030;4.006;2022-07-06T01:58:47;1.98;;;1.33;;
29416;SDS011;28421;51.030;4.006;2022-07-06T02:01:15;1.80;;;1.55;;
29416;SDS011;28421;51.030;4.006;2022-07-06T02:03:43;1.55;;;1.13;;
29416;SDS011;28421;51.030;4.006;2022-07-06T02:06:09;1.25;;;1.23;;
29416;SDS011;28421;51.030;4.006;2022-07-06T02:08:36;1.98;;;1.10;;
29416;SDS011;28421;51.030;4.006;2022-07-06T02:11:02;2.17;;;1.42;;
29416;SDS011;28421;51.030;4.006;2022-07-06T02:13:29;1.58;;;1.48;;
29416;SDS011;28421;51.030;4.006;2022-07-06T02:15:55;2.40;;;1.88;;
29416;SDS011;28421;51.030;4.006;2022-07-06T02:18:21;2.13;;;1.35;;
29416;SDS011;28421;51.030;4.006;2022-07-06T02:20:47;1.77;;;1.67;;
29416;SDS011;28421;51.030;4.006;2022-07-06T02:23:13;1.67;;;1.58;;
29416;SDS011;28421;51.030;4.006;2022-07-06T02:25:39;1.83;;;1.40;;
29416;SDS011;28421;51.030;4.006;2022-07-06T02:28:05;1.25;;;1.15;;
29416;SDS011;28421;51.030;4.006;2022-07-06T02:30:31;3.60;;;2.20;;
29416;SDS011;28421;51.030;4.006;2022-07-06T02:32:57;2.45;;;1.83;;
29416;SDS011;28421;51.030;4.006;2022-07-06T02:35:24;1.50;;;1.42;;
29416;SDS011;28421;51.030;4.006;2022-07-06T02:37:49;1.48;;;1.38;;
29416;SDS011;28421;51.030;4.006;2022-07-06T02:40:15;3.95;;;1.73;;
29416;SDS011;28421;51.030;4.006;2022-07-06T02:42:41;6.43;;;2.15;;
29416;SDS011;28421;51.030;4.006;2022-07-06T02:45:08;3.72;;;2.05;;
29416;SDS011;28421;51.030;4.006;2022-07-06T02:47:34;1.67;;;1.58;;
29416;SDS011;28421;51.030;4.006;2022-07-06T02:50:04;1.65;;;1.55;;
29416;SDS011;28421;51.030;4.006;2022-07-06T02:52:30;2.95;;;1.67;;
29416;SDS011;28421;51.030;4.006;2022-07-06T02:54:59;1.52;;;1.40;;
29416;SDS011;28421;51.030;4.006;2022-07-06T02:57:25;4.57;;;2.13;;
29416;SDS011;28421;51.030;4.006;2022-07-06T02:59:51;2.13;;;1.88;;
29416;SDS011;28421;51.030;4.006;2022-07-06T03:02:18;1.30;;;1.30;;
29416;SDS011;28421;51.030;4.006;2022-07-06T03:04:45;2.45;;;2.00;;
29416;SDS011;28421;51.030;4.006;2022-07-06T03:07:10;2.03;;;1.75;;
29416;SDS011;28421;51.030;4.006;2022-07-06T03:09:37;1.90;;;1.45;;
29416;SDS011;28421;51.030;4.006;2022-07-06T03:12:03;4.70;;;2.58;;
29416;SDS011;28421;51.030;4.006;2022-07-06T03:14:31;1.40;;;1.30;;
29416;SDS011;28421;51.030;4.006;2022-07-06T03:16:56;2.42;;;1.83;;
29416;SDS011;28421;51.030;4.006;2022-07-06T03:19:22;2.40;;;1.98;;
29416;SDS011;28421;51.030;4.006;2022-07-06T03:21:48;1.90;;;1.80;;
29416;SDS011;28421;51.030;4.006;2022-07-06T03:24:14;2.03;;;1.75;;
29416;SDS011;28421;51.030;4.006;2022-07-06T03:26:40;2.70;;;2.25;;
29416;SDS011;28421;51.030;4.006;2022-07-06T03:29:05;2.58;;;2.40;;
29416;SDS011;28421;51.030;4.006;2022-07-06T03:31:31;2.10;;;1.90;;
29416;SDS011;28421;51.030;4.006;2022-07-06T03:33:57;3.80;;;2.13;;
29416;SDS011;28421;51.030;4.006;2022-07-06T03:36:23;4.03;;;1.73;;
29416;SDS011;28421;51.030;4.006;2022-07-06T03:38:50;2.00;;;1.80;;
29416;SDS011;28421;51.030;4.006;2022-07-06T03:41:16;1.55;;;1.45;;
29416;SDS011;28421;51.030;4.006;2022-07-06T03:43:42;1.95;;;1.85;;
29416;SDS011;28421;51.030;4.006;2022-07-06T03:46:08;2.28;;;1.90;;
29416;SDS011;28421;51.030;4.006;2022-07-06T03:48:34;2.40;;;1.77;;
29416;SDS011;28421;51.030;4.006;2022-07-06T03:51:02;3.03;;;1.77;;
29416;SDS011;28421;51.030;4.006;2022-07-06T03:53:27;2.10;;;2.00;;
29416;SDS011;28421;51.030;4.006;2022-07-06T03:55:53;1.73;;;1.63;;
29416;SDS011;28421;51.030;4.006;2022-07-06T04:01:04;1.30;;;1.25;;
29416;SDS011;28421;51.030;4.006;2022-07-06T04:03:30;2.35;;;1.75;;
29416;SDS011;28421;51.030;4.006;2022-07-06T04:05:56;1.75;;;1.65;;
29416;SDS011;28421;51.030;4.006;2022-07-06T04:08:21;3.97;;;2.30;;
29416;SDS011;28421;51.030;4.006;2022-07-06T04:10:52;1.52;;;1.42;;
29416;SDS011;28421;51.030;4.006;2022-07-06T04:13:18;8.32;;;1.85;;
29416;SDS011;28421;51.030;4.006;2022-07-06T04:15:44;2.20;;;2.08;;
29416;SDS011;28421;51.030;4.006;2022-07-06T04:18:11;2.53;;;1.27;;
29416;SDS011;28421;51.030;4.006;2022-07-06T04:20:43;1.90;;;1.77;;
29416;SDS011;28421;51.030;4.006;2022-07-06T04:23:09;3.20;;;1.90;;
29416;SDS011;28421;51.030;4.006;2022-07-06T04:25:35;2.30;;;2.08;;
29416;SDS011;28421;51.030;4.006;2022-07-06T04:28:01;1.27;;;1.27;;
29416;SDS011;28421;51.030;4.006;2022-07-06T04:30:29;3.17;;;2.40;;
29416;SDS011;28421;51.030;4.006;2022-07-06T04:32:55;3.38;;;1.80;;
29416;SDS011;28421;51.030;4.006;2022-07-06T04:35:23;3.80;;;1.85;;
29416;SDS011;28421;51.030;4.006;2022-07-06T04:37:52;2.40;;;2.05;;
29416;SDS011;28421;51.030;4.006;2022-07-06T04:40:19;7.35;;;2.00;;
29416;SDS011;28421;51.030;4.006;2022-07-06T04:42:48;9.02;;;2.40;;
29416;SDS011;28421;51.030;4.006;2022-07-06T04:45:14;3.90;;;2.33;;
29416;SDS011;28421;51.030;4.006;2022-07-06T04:47:40;10.25;;;2.17;;
29416;SDS011;28421;51.030;4.006;2022-07-06T04:50:08;2.85;;;2.33;;
29416;SDS011;28421;51.030;4.006;2022-07-06T04:52:34;2.53;;;2.13;;
29416;SDS011;28421;51.030;4.006;2022-07-06T04:55:00;2.28;;;1.83;;
29416;SDS011;28421;51.030;4.006;2022-07-06T04:57:26;1.88;;;1.77;;
29416;SDS011;28421;51.030;4.006;2022-07-06T04:59:56;2.15;;;1.95;;
29416;SDS011;28421;51.030;4.006;2022-07-06T05:02:22;2.33;;;2.05;;
29416;SDS011;28421;51.030;4.006;2022-07-06T05:04:48;2.72;;;2.42;;
29416;SDS011;28421;51.030;4.006;2022-07-06T05:07:14;2.15;;;1.80;;
29416;SDS011;28421;51.030;4.006;2022-07-06T05:09:40;1.92;;;1.77;;
29416;SDS011;28421;51.030;4.006;2022-07-06T05:12:06;3.10;;;2.72;;
29416;SDS011;28421;51.030;4.006;2022-07-06T05:14:33;3.58;;;3.28;;
29416;SDS011;28421;51.030;4.006;2022-07-06T05:16:59;5.53;;;2.35;;
29416;SDS011;28421;51.030;4.006;2022-07-06T05:19:25;5.43;;;1.92;;
29416;SDS011;28421;51.030;4.006;2022-07-06T05:21:51;2.60;;;2.40;;
29416;SDS011;28421;51.030;4.006;2022-07-06T05:24:17;4.95;;;2.25;;
29416;SDS011;28421;51.030;4.006;2022-07-06T05:26:44;2.28;;;2.10;;
29416;SDS011;28421;51.030;4.006;2022-07-06T05:29:10;2.50;;;2.05;;
29416;SDS011;28421;51.030;4.006;2022-07-06T05:31:37;2.17;;;2.08;;
29416;SDS011;28421;51.030;4.006;2022-07-06T05:34:03;6.30;;;2.85;;
29416;SDS011;28421;51.030;4.006;2022-07-06T05:36:29;8.02;;;2.90;;
29416;SDS011;28421;51.030;4.006;2022-07-06T05:38:55;2.85;;;2.45;;
29416;SDS011;28421;51.030;4.006;2022-07-06T05:41:21;3.15;;;2.70;;
29416;SDS011;28421;51.030;4.006;2022-07-06T05:43:48;2.08;;;1.85;;
29416;SDS011;28421;51.030;4.006;2022-07-06T05:46:14;3.42;;;1.88;;
29416;SDS011;28421;51.030;4.006;2022-07-06T05:48:39;4.55;;;2.95;;
29416;SDS011;28421;51.030;4.006;2022-07-06T05:51:25;3.78;;;2.50;;
29416;SDS011;28421;51.030;4.006;2022-07-06T05:53:52;4.18;;;3.13;;
29416;SDS011;28421;51.030;4.006;2022-07-06T05:56:19;6.22;;;3.08;;
29416;SDS011;28421;51.030;4.006;2022-07-06T05:58:45;5.28;;;3.70;;
29416;SDS011;28421;51.030;4.006;2022-07-06T06:01:12;8.38;;;3.78;;
29416;SDS011;28421;51.030;4.006;2022-07-06T06:03:42;5.43;;;3.80;;
29416;SDS011;28421;51.030;4.006;2022-07-06T06:06:09;4.40;;;3.35;;
29416;SDS011;28421;51.030;4.006;2022-07-06T06:08:35;6.10;;;3.90;;
29416;SDS011;28421;51.030;4.006;2022-07-06T06:11:03;3.05;;;2.72;;
29416;SDS011;28421;51.030;4.006;2022-07-06T06:13:29;7.53;;;3.80;;
29416;SDS011;28421;51.030;4.006;2022-07-06T06:15:55;4.47;;;3.00;;
29416;SDS011;28421;51.030;4.006;2022-07-06T06:18:22;4.50;;;3.25;;
29416;SDS011;28421;51.030;4.006;2022-07-06T06:20:48;4.85;;;2.65;;
29416;SDS011;28421;51.030;4.006;2022-07-06T06:23:14;4.70;;;2.38;;
29416;SDS011;28421;51.030;4.006;2022-07-06T06:25:40;3.53;;;2.78;;
29416;SDS011;28421;51.030;4.006;2022-07-06T06:28:07;2.78;;;2.55;;
29416;SDS011;28421;51.030;4.006;2022-07-06T06:30:33;3.67;;;2.55;;
29416;SDS011;28421;51.030;4.006;2022-07-06T06:35:36;6.05;;;2.42;;
29416;SDS011;28421;51.030;4.006;2022-07-06T06:38:02;3.92;;;2.53;;
29416;SDS011;28421;51.030;4.006;2022-07-06T06:40:28;4.75;;;2.67;;
29416;SDS011;28421;51.030;4.006;2022-07-06T06:42:54;4.38;;;3.17;;
29416;SDS011;28421;51.030;4.006;2022-07-06T06:45:21;3.83;;;3.03;;
29416;SDS011;28421;51.030;4.006;2022-07-06T06:47:47;4.00;;;2.85;;
29416;SDS011;28421;51.030;4.006;2022-07-06T06:50:13;8.57;;;3.28;;
29416;SDS011;28421;51.030;4.006;2022-07-06T06:52:39;4.25;;;2.88;;
29416;SDS011;28421;51.030;4.006;2022-07-06T06:55:05;4.18;;;2.65;;
29416;SDS011;28421;51.030;4.006;2022-07-06T06:57:31;2.33;;;2.13;;
29416;SDS011;28421;51.030;4.006;2022-07-06T06:59:57;2.58;;;2.38;;
29416;SDS011;28421;51.030;4.006;2022-07-06T07:02:23;6.18;;;2.92;;
29416;SDS011;28421;51.030;4.006;2022-07-06T07:04:49;5.18;;;3.03;;
29416;SDS011;28421;51.030;4.006;2022-07-06T07:07:14;3.90;;;2.55;;
29416;SDS011;28421;51.030;4.006;2022-07-06T07:09:40;3.75;;;2.90;;
29416;SDS011;28421;51.030;4.006;2022-07-06T07:12:06;3.85;;;2.97;;
29416;SDS011;28421;51.030;4.006;2022-07-06T07:14:32;4.93;;;3.33;;
29416;SDS011;28421;51.030;4.006;2022-07-06T07:16:58;5.22;;;2.33;;
29416;SDS011;28421;51.030;4.006;2022-07-06T07:19:23;5.20;;;4.13;;
29416;SDS011;28421;51.030;4.006;2022-07-06T07:21:49;5.15;;;2.63;;
29416;SDS011;28421;51.030;4.006;2022-07-06T07:24:15;2.70;;;2.45;;
29416;SDS011;28421;51.030;4.006;2022-07-06T07:26:41;2.33;;;1.75;;
29416;SDS011;28421;51.030;4.006;2022-07-06T07:29:07;3.30;;;2.55;;
29416;SDS011;28421;51.030;4.006;2022-07-06T07:31:33;2.92;;;2.08;;
29416;SDS011;28421;51.030;4.006;2022-07-06T07:33:58;3.42;;;1.58;;
29416;SDS011;28421;51.030;4.006;2022-07-06T07:36:24;2.95;;;1.95;;
29416;SDS011;28421;51.030;4.006;2022-07-06T07:38:50;1.75;;;1.65;;
29416;SDS011;28421;51.030;4.006;2022-07-06T07:41:16;4.13;;;2.05;;
29416;SDS011;28421;51.030;4.006;2022-07-06T07:43:42;7.47;;;1.85;;
29416;SDS011;28421;51.030;4.006;2022-07-06T07:46:08;2.40;;;1.70;;
29416;SDS011;28421;51.030;4.006;2022-07-06T07:48:34;4.65;;;2.55;;
29416;SDS011;28421;51.030;4.006;2022-07-06T07:51:01;2.25;;;1.70;;
29416;SDS011;28421;51.030;4.006;2022-07-06T07:53:26;2.25;;;1.60;;
29416;SDS011;28421;51.030;4.006;2022-07-06T07:55:52;6.55;;;2.17;;
29416;SDS011;28421;51.030;4.006;2022-07-06T07:58:18;2.30;;;1.55;;
29416;SDS011;28421;51.030;4.006;2022-07-06T08:00:44;1.83;;;1.73;;
29416;SDS011;28421;51.030;4.006;2022-07-06T08:03:11;2.72;;;2.30;;
29416;SDS011;28421;51.030;4.006;2022-07-06T08:05:37;2.22;;;1.83;;
29416;SDS011;28421;51.030;4.006;2022-07-06T08:08:03;2.78;;;1.88;;
29416;SDS011;28421;51.030;4.006;2022-07-06T08:10:29;3.85;;;2.45;;
29416;SDS011;28421;51.030;4.006;2022-07-06T08:12:55;5.80;;;2.45;;
29416;SDS011;28421;51.030;4.006;2022-07-06T08:15:21;2.67;;;2.13;;
29416;SDS011;28421;51.030;4.006;2022-07-06T08:17:47;3.45;;;2.60;;
29416;SDS011;28421;51.030;4.006;2022-07-06T08:20:12;2.85;;;2.55;;
29416;SDS011;28421;51.030;4.006;2022-07-06T08:22:39;2.63;;;2.42;;
29416;SDS011;28421;51.030;4.006;2022-07-06T08:25:07;3.72;;;1.80;;
29416;SDS011;28421;51.030;4.006;2022-07-06T08:27:33;2.35;;;2.00;;
29416;SDS011;28421;51.030;4.006;2022-07-06T08:29:59;2.58;;;2.08;;
29416;SDS011;28421;51.030;4.006;2022-07-06T08:32:25;2.38;;;2.17;;
29416;SDS011;28421;51.030;4.006;2022-07-06T08:34:51;3.70;;;2.45;;
29416;SDS011;28421;51.030;4.006;2022-07-06T08:37:18;2.17;;;1.98;;
29416;SDS011;28421;51.030;4.006;2022-07-06T08:39:44;2.45;;;1.90;;
29416;SDS011;28421;51.030;4.006;2022-07-06T08:42:10;2.58;;;2.38;;
29416;SDS011;28421;51.030;4.006;2022-07-06T08:44:37;2.22;;;1.92;;
29416;SDS011;28421;51.030;4.006;2022-07-06T08:47:06;6.97;;;2.33;;
29416;SDS011;28421;51.030;4.006;2022-07-06T08:49:35;5.03;;;2.47;;
29416;SDS011;28421;51.030;4.006;2022-07-06T08:52:02;1.80;;;1.52;;
29416;SDS011;28421;51.030;4.006;2022-07-06T08:54:29;5.43;;;2.38;;
29416;SDS011;28421;51.030;4.006;2022-07-06T08:56:55;1.95;;;1.60;;
29416;SDS011;28421;51.030;4.006;2022-07-06T08:59:22;4.68;;;2.10;;
29416;SDS011;28421;51.030;4.006;2022-07-06T09:01:47;4.40;;;2.13;;
29416;SDS011;28421;51.030;4.006;2022-07-06T09:04:15;2.22;;;2.03;;
29416;SDS011;28421;51.030;4.006;2022-07-06T09:06:42;2.72;;;1.85;;
29416;SDS011;28421;51.030;4.006;2022-07-06T09:09:11;4.05;;;1.58;;
29416;SDS011;28421;51.030;4.006;2022-07-06T09:11:48;4.45;;;1.65;;
29416;SDS011;28421;51.030;4.006;2022-07-06T09:14:15;3.17;;;1.85;;
29416;SDS011;28421;51.030;4.006;2022-07-06T09:16:42;6.60;;;1.75;;
29416;SDS011;28421;51.030;4.006;2022-07-06T09:19:09;6.32;;;1.88;;
29416;SDS011;28421;51.030;4.006;2022-07-06T09:21:36;2.30;;;1.55;;
29416;SDS011;28421;51.030;4.006;2022-07-06T09:24:05;2.95;;;1.60;;
29416;SDS011;28421;51.030;4.006;2022-07-06T09:26:33;0.82;;;0.82;;
29416;SDS011;28421;51.030;4.006;2022-07-06T09:28:59;5.80;;;2.10;;
29416;SDS011;28421;51.030;4.006;2022-07-06T09:31:25;3.35;;;1.50;;
29416;SDS011;28421;51.030;4.006;2022-07-06T09:34:02;4.60;;;2.15;;
29416;SDS011;28421;51.030;4.006;2022-07-06T09:36:51;1.70;;;1.40;;
29416;SDS011;28421;51.030;4.006;2022-07-06T09:39:24;4.15;;;1.20;;
29416;SDS011;28421;51.030;4.006;2022-07-06T09:41:52;3.47;;;1.60;;
29416;SDS011;28421;51.030;4.006;2022-07-06T09:44:23;1.17;;;1.08;;
29416;SDS011;28421;51.030;4.006;2022-07-06T09:46:52;3.50;;;1.67;;
29416;SDS011;28421;51.030;4.006;2022-07-06T09:49:20;1.98;;;1.42;;
29416;SDS011;28421;51.030;4.006;2022-07-06T09:51:47;1.45;;;1.33;;
29416;SDS011;28421;51.030;4.006;2022-07-06T09:54:14;3.55;;;1.45;;
29416;SDS011;28421;51.030;4.006;2022-07-06T09:56:41;1.63;;;1.42;;
29416;SDS011;28421;51.030;4.006;2022-07-06T09:59:18;1.30;;;1.20;;
29416;SDS011;28421;51.030;4.006;2022-07-06T10:01:46;3.40;;;1.45;;
29416;SDS011;28421;51.030;4.006;2022-07-06T10:04:13;2.72;;;1.38;;
29416;SDS011;28421;51.030;4.006;2022-07-06T10:06:40;2.95;;;1.02;;
29416;SDS011;28421;51.030;4.006;2022-07-06T10:09:06;1.40;;;1.13;;
29416;SDS011;28421;51.030;4.006;2022-07-06T10:11:36;3.63;;;1.30;;
29416;SDS011;28421;51.030;4.006;2022-07-06T10:14:04;1.77;;;1.50;;
29416;SDS011;28421;51.030;4.006;2022-07-06T10:16:30;5.45;;;1.70;;
29416;SDS011;28421;51.030;4.006;2022-07-06T10:18:56;3.70;;;1.85;;
29416;SDS011;28421;51.030;4.006;2022-07-06T10:21:24;3.50;;;1.30;;
29416;SDS011;28421;51.030;4.006;2022-07-06T10:23:50;4.10;;;1.80;;
29416;SDS011;28421;51.030;4.006;2022-07-06T10:26:17;2.53;;;2.03;;
29416;SDS011;28421;51.030;4.006;2022-07-06T10:28:43;2.13;;;1.27;;
29416;SDS011;28421;51.030;4.006;2022-07-06T10:31:12;1.40;;;1.30;;
29416;SDS011;28421;51.030;4.006;2022-07-06T10:33:40;4.45;;;2.00;;
29416;SDS011;28421;51.030;4.006;2022-07-06T10:36:07;1.40;;;1.30;;
29416;SDS011;28421;51.030;4.006;2022-07-06T10:38:33;1.30;;;1.15;;
29416;SDS011;28421;51.030;4.006;2022-07-06T10:41:07;1.10;;;1.10;;
29416;SDS011;28421;51.030;4.006;2022-07-06T10:46:07;1.40;;;1.30;;
29416;SDS011;28421;51.030;4.006;2022-07-06T10:48:37;1.65;;;1.13;;
29416;SDS011;28421;51.030;4.006;2022-07-06T10:51:04;1.55;;;1.35;;
29416;SDS011;28421;51.030;4.006;2022-07-06T10:53:34;4.95;;;1.10;;
29416;SDS011;28421;51.030;4.006;2022-07-06T10:56:03;2.10;;;1.20;;
29416;SDS011;28421;51.030;4.006;2022-07-06T10:58:49;3.15;;;0.90;;
29416;SDS011;28421;51.030;4.006;2022-07-06T11:01:21;1.55;;;1.05;;
29416;SDS011;28421;51.030;4.006;2022-07-06T11:03:49;1.48;;;1.00;;
29416;SDS011;28421;51.030;4.006;2022-07-06T11:06:21;8.18;;;1.30;;
29416;SDS011;28421;51.030;4.006;2022-07-06T11:08:54;1.02;;;0.82;;
29416;SDS011;28421;51.030;4.006;2022-07-06T11:13:48;0.85;;;0.85;;
29416;SDS011;28421;51.030;4.006;2022-07-06T11:16:22;4.43;;;2.03;;
29416;SDS011;28421;51.030;4.006;2022-07-06T11:19:01;2.13;;;1.50;;
29416;SDS011;28421;51.030;4.006;2022-07-06T11:21:40;1.55;;;1.02;;
29416;SDS011;28421;51.030;4.006;2022-07-06T11:24:07;2.75;;;1.02;;
29416;SDS011;28421;51.030;4.006;2022-07-06T11:26:34;2.83;;;1.10;;
29416;SDS011;28421;51.030;4.006;2022-07-06T11:29:03;3.67;;;1.25;;
29416;SDS011;28421;51.030;4.006;2022-07-06T11:31:37;1.08;;;1.02;;
29416;SDS011;28421;51.030;4.006;2022-07-06T11:34:04;1.80;;;0.73;;
29416;SDS011;28421;51.030;4.006;2022-07-06T11:36:32;1.83;;;1.08;;
29416;SDS011;28421;51.030;4.006;2022-07-06T11:38:59;2.17;;;0.95;;
29416;SDS011;28421;51.030;4.006;2022-07-06T11:41:25;0.90;;;0.82;;
29416;SDS011;28421;51.030;4.006;2022-07-06T11:43:50;1.80;;;1.00;;
29416;SDS011;28421;51.030;4.006;2022-07-06T11:46:27;4.05;;;1.13;;
29416;SDS011;28421;51.030;4.006;2022-07-06T11:49:06;2.05;;;0.80;;
29416;SDS011;28421;51.030;4.006;2022-07-06T11:51:35;0.57;;;0.57;;
29416;SDS011;28421;51.030;4.006;2022-07-06T11:54:07;1.83;;;0.70;;
29416;SDS011;28421;51.030;4.006;2022-07-06T11:56:59;2.03;;;1.30;;
29416;SDS011;28421;51.030;4.006;2022-07-06T11:59:28;3.05;;;1.00;;
29416;SDS011;28421;51.030;4.006;2022-07-06T12:02:05;0.73;;;0.68;;
29416;SDS011;28421;51.030;4.006;2022-07-06T12:04:32;1.08;;;0.90;;
29416;SDS011;28421;51.030;4.006;2022-07-06T12:06:59;2.53;;;0.85;;
29416;SDS011;28421;51.030;4.006;2022-07-06T12:09:44;6.28;;;1.30;;
29416;SDS011;28421;51.030;4.006;2022-07-06T12:12:11;1.13;;;0.60;;
29416;SDS011;28421;51.030;4.006;2022-07-06T12:14:38;0.68;;;0.60;;
29416;SDS011;28421;51.030;4.006;2022-07-06T12:17:06;0.90;;;0.90;;
29416;SDS011;28421;51.030;4.006;2022-07-06T12:19:33;3.80;;;1.05;;
29416;SDS011;28421;51.030;4.006;2022-07-06T12:21:59;0.85;;;0.85;;
29416;SDS011;28421;51.030;4.006;2022-07-06T12:24:29;0.82;;;0.82;;
29416;SDS011;28421;51.030;4.006;2022-07-06T12:26:56;2.13;;;0.90;;
29416;SDS011;28421;51.030;4.006;2022-07-06T12:29:23;1.38;;;1.25;;
29416;SDS011;28421;51.030;4.006;2022-07-06T12:31:53;1.35;;;0.80;;
29416;SDS011;28421;51.030;4.006;2022-07-06T12:34:27;0.70;;;0.70;;
29416;SDS011;28421;51.030;4.006;2022-07-06T12:37:05;0.73;;;0.73;;
29416;SDS011;28421;51.030;4.006;2022-07-06T12:39:32;1.15;;;0.88;;
29416;SDS011;28421;51.030;4.006;2022-07-06T12:42:05;2.53;;;1.23;;
29416;SDS011;28421;51.030;4.006;2022-07-06T12:44:31;2.78;;;0.82;;
29416;SDS011;28421;51.030;4.006;2022-07-06T12:47:04;0.73;;;0.70;;
29416;SDS011;28421;51.030;4.006;2022-07-06T12:49:32;3.30;;;0.63;;
29416;SDS011;28421;51.030;4.006;2022-07-06T12:54:40;2.90;;;1.25;;
29416;SDS011;28421;51.030;4.006;2022-07-06T12:57:10;0.80;;;0.80;;
29416;SDS011;28421;51.030;4.006;2022-07-06T12:59:47;9.95;;;1.27;;
29416;SDS011;28421;51.030;4.006;2022-07-06T13:02:23;4.53;;;0.73;;
29416;SDS011;28421;51.030;4.006;2022-07-06T13:05:22;0.73;;;0.73;;
29416;SDS011;28421;51.030;4.006;2022-07-06T13:07:47;1.05;;;0.80;;
29416;SDS011;28421;51.030;4.006;2022-07-06T13:10:15;1.90;;;1.33;;
29416;SDS011;28421;51.030;4.006;2022-07-06T13:12:41;1.98;;;1.00;;
29416;SDS011;28421;51.030;4.006;2022-07-06T13:15:08;3.83;;;1.25;;
29416;SDS011;28421;51.030;4.006;2022-07-06T13:17:34;1.42;;;0.68;;
29416;SDS011;28421;51.030;4.006;2022-07-06T13:20:02;4.05;;;0.98;;
29416;SDS011;28421;51.030;4.006;2022-07-06T13:22:29;3.83;;;1.02;;
29416;SDS011;28421;51.030;4.006;2022-07-06T13:24:54;5.65;;;1.27;;
29416;SDS011;28421;51.030;4.006;2022-07-06T13:27:20;1.20;;;1.10;;
29416;SDS011;28421;51.030;4.006;2022-07-06T13:29:46;2.10;;;1.00;;
29416;SDS011;28421;51.030;4.006;2022-07-06T13:32:11;0.57;;;0.57;;
29416;SDS011;28421;51.030;4.006;2022-07-06T13:34:37;0.90;;;0.90;;
29416;SDS011;28421;51.030;4.006;2022-07-06T13:37:03;2.58;;;0.60;;
29416;SDS011;28421;51.030;4.006;2022-07-06T13:39:30;0.40;;;0.40;;
29416;SDS011;28421;51.030;4.006;2022-07-06T13:41:56;4.88;;;1.10;;
29416;SDS011;28421;51.030;4.006;2022-07-06T13:44:22;1.55;;;0.80;;
29416;SDS011;28421;51.030;4.006;2022-07-06T13:46:49;0.75;;;0.75;;
29416;SDS011;28421;51.030;4.006;2022-07-06T13:49:16;2.05;;;0.63;;
29416;SDS011;28421;51.030;4.006;2022-07-06T13:51:42;1.25;;;1.15;;
29416;SDS011;28421;51.030;4.006;2022-07-06T13:54:08;1.75;;;0.63;;
29416;SDS011;28421;51.030;4.006;2022-07-06T13:56:36;2.00;;;0.73;;
29416;SDS011;28421;51.030;4.006;2022-07-06T13:59:03;2.20;;;0.88;;
29416;SDS011;28421;51.030;4.006;2022-07-06T14:01:29;0.50;;;0.50;;
29416;SDS011;28421;51.030;4.006;2022-07-06T14:03:55;0.68;;;0.68;;
29416;SDS011;28421;51.030;4.006;2022-07-06T14:06:20;3.00;;;0.82;;
29416;SDS011;28421;51.030;4.006;2022-07-06T14:08:46;5.80;;;1.27;;
29416;SDS011;28421;51.030;4.006;2022-07-06T14:11:12;4.15;;;1.08;;
29416;SDS011;28421;51.030;4.006;2022-07-06T14:13:38;0.82;;;0.73;;
29416;SDS011;28421;51.030;4.006;2022-07-06T14:16:04;2.05;;;0.70;;
29416;SDS011;28421;51.030;4.006;2022-07-06T14:18:30;1.02;;;0.90;;
29416;SDS011;28421;51.030;4.006;2022-07-06T14:20:57;5.57;;;1.15;;
29416;SDS011;28421;51.030;4.006;2022-07-06T14:23:23;3.30;;;1.10;;
29416;SDS011;28421;51.030;4.006;2022-07-06T14:25:49;1.17;;;0.70;;
29416;SDS011;28421;51.030;4.006;2022-07-06T14:28:15;1.60;;;1.17;;
29416;SDS011;28421;51.030;4.006;2022-07-06T14:30:42;0.73;;;0.73;;
29416;SDS011;28421;51.030;4.006;2022-07-06T14:33:12;1.42;;;0.90;;
29416;SDS011;28421;51.030;4.006;2022-07-06T14:35:48;2.85;;;0.88;;
29416;SDS011;28421;51.030;4.006;2022-07-06T14:38:16;0.85;;;0.70;;
29416;SDS011;28421;51.030;4.006;2022-07-06T14:40:43;3.45;;;1.27;;
29416;SDS011;28421;51.030;4.006;2022-07-06T14:43:09;2.55;;;1.05;;
29416;SDS011;28421;51.030;4.006;2022-07-06T14:45:35;4.47;;;1.30;;
29416;SDS011;28421;51.030;4.006;2022-07-06T14:48:01;3.40;;;1.65;;
29416;SDS011;28421;51.030;4.006;2022-07-06T14:50:27;1.10;;;1.00;;
29416;SDS011;28421;51.030;4.006;2022-07-06T14:52:53;0.90;;;0.90;;
29416;SDS011;28421;51.030;4.006;2022-07-06T14:55:20;0.90;;;0.90;;
29416;SDS011;28421;51.030;4.006;2022-07-06T14:57:46;1.52;;;1.17;;
29416;SDS011;28421;51.030;4.006;2022-07-06T15:00:12;1.27;;;1.17;;
29416;SDS011;28421;51.030;4.006;2022-07-06T15:02:39;7.10;;;1.55;;